createdAt,value
2016-06-01T00:00:06.819Z,21
2016-06-01T00:00:16.803Z,20.9
2016-06-01T00:00:26.788Z,20.9
2016-06-01T00:00:36.788Z,20.9
2016-06-01T00:00:46.775Z,21
2016-06-01T00:00:56.775Z,21
2016-06-01T00:01:06.760Z,20.9
2016-06-01T00:01:16.760Z,21
2016-06-01T00:01:26.728Z,21.1
2016-06-01T00:01:36.728Z,21.1
2016-06-01T00:01:46.716Z,21
2016-06-01T00:01:56.700Z,21
2016-06-01T00:02:06.684Z,21
2016-06-01T00:02:16.684Z,21
2016-06-01T00:02:26.684Z,21.1
2016-06-01T00:02:36.653Z,21
2016-06-01T00:02:46.656Z,21
2016-06-01T00:02:56.656Z,20.9
2016-06-01T00:03:06.641Z,21
2016-06-01T00:03:16.625Z,21.1
2016-06-01T00:03:26.609Z,21
2016-06-01T00:03:36.609Z,21.1
2016-06-01T00:03:46.580Z,21.1
2016-06-01T00:03:56.580Z,21.1
2016-06-01T00:04:06.564Z,21
2016-06-01T00:04:16.549Z,21.1
2016-06-01T00:04:26.549Z,21
2016-06-01T00:04:36.549Z,21
2016-06-01T00:04:46.364Z,21.1
2016-06-01T00:04:56.521Z,21.1
2016-06-01T00:05:06.505Z,21.1
2016-06-01T00:05:16.489Z,21.1
2016-06-01T00:05:26.489Z,21.1
2016-06-01T00:05:36.474Z,21.1
2016-06-01T00:05:46.304Z,21.1
2016-06-01T00:05:56.444Z,21.2
2016-06-01T00:06:06.444Z,21.3
2016-06-01T00:06:16.273Z,21.2
2016-06-01T00:06:26.429Z,21
2016-06-01T00:06:36.398Z,21
2016-06-01T00:06:46.244Z,21.1
2016-06-01T00:06:56.385Z,21
2016-06-01T00:07:06.369Z,21.1
2016-06-01T00:07:16.354Z,21
2016-06-01T00:07:26.354Z,21
2016-06-01T00:07:36.182Z,21
2016-06-01T00:07:46.325Z,21
2016-06-01T00:07:56.325Z,21
2016-06-01T00:08:06.310Z,21
2016-06-01T00:08:16.294Z,20.9
2016-06-01T00:08:26.169Z,21
2016-06-01T00:08:36.435Z,20.9
2016-06-01T00:08:46.124Z,20.8
2016-06-01T00:08:56.577Z,20.8
2016-06-01T00:09:06.281Z,20.9
2016-06-01T00:09:16.234Z,20.9
2016-06-01T00:09:26.218Z,20.9
2016-06-01T00:09:36.062Z,20.8
2016-06-01T00:09:46.071Z,20.8
2016-06-01T00:09:56.212Z,20.8
2016-06-01T00:10:06.212Z,20.9
2016-06-01T00:10:16.040Z,20.9
2016-06-01T00:10:26.181Z,20.9
2016-06-01T00:10:36.024Z,20.9
2016-06-01T00:10:46.022Z,20.8
2016-06-01T00:10:56.178Z,20.8
2016-06-01T00:11:06.163Z,20.8
2016-06-01T00:11:16.147Z,20.7
2016-06-01T00:11:26.131Z,20.9
2016-06-01T00:11:36.131Z,20.8
2016-06-01T00:11:46.144Z,20.7
2016-06-01T00:11:56.144Z,20.8
2016-06-01T00:12:06.128Z,20.8
2016-06-01T00:12:16.113Z,20.8
2016-06-01T00:12:26.128Z,20.7
2016-06-01T00:12:35.941Z,20.7
2016-06-01T00:12:46.111Z,20.8
2016-06-01T00:12:56.111Z,20.7
2016-06-01T00:13:06.096Z,20.7
2016-06-01T00:13:16.080Z,20.8
2016-06-01T00:13:26.064Z,20.8
2016-06-01T00:13:36.064Z,20.7
2016-06-01T00:13:46.077Z,20.8
2016-06-01T00:13:56.077Z,20.8
2016-06-01T00:14:06.046Z,20.9
2016-06-01T00:14:16.046Z,20.7
2016-06-01T00:14:26.030Z,20.7
2016-06-01T00:14:36.014Z,20.7
2016-06-01T00:14:45.999Z,20.7
2016-06-01T00:14:56.015Z,20.7
2016-06-01T00:15:05.999Z,20.8
2016-06-01T00:15:15.843Z,20.7
2016-06-01T00:15:25.983Z,21
2016-06-01T00:15:35.952Z,20.8
2016-06-01T00:15:45.952Z,20.8
2016-06-01T00:15:55.807Z,20.8
2016-06-01T00:16:05.932Z,20.8
2016-06-01T00:16:15.791Z,20.9
2016-06-01T00:16:25.916Z,20.7
2016-06-01T00:16:35.901Z,20.8
2016-06-01T00:16:45.901Z,20.7
2016-06-01T00:16:55.898Z,20.7
2016-06-01T00:17:05.882Z,20.8
2016-06-01T00:17:15.726Z,20.8
2016-06-01T00:17:25.867Z,20.7
2016-06-01T00:17:35.851Z,20.7
2016-06-01T00:17:45.851Z,20.7
2016-06-01T00:17:55.848Z,20.8
2016-06-01T00:18:05.832Z,20.8
2016-06-01T00:18:15.816Z,20.8
2016-06-01T00:18:25.816Z,20.9
2016-06-01T00:18:35.801Z,20.7
2016-06-01T00:18:45.785Z,20.7
2016-06-01T00:18:55.781Z,20.7
2016-06-01T00:19:05.781Z,20.8
2016-06-01T00:19:15.766Z,20.8
2016-06-01T00:19:25.766Z,20.7
2016-06-01T00:19:35.750Z,20.7
2016-06-01T00:19:45.735Z,20.8
2016-06-01T00:19:55.727Z,20.8
2016-06-01T00:20:05.727Z,20.7
2016-06-01T00:20:15.711Z,20.8
2016-06-01T00:20:25.696Z,20.6
2016-06-01T00:20:35.680Z,20.7
2016-06-01T00:20:45.664Z,20.7
2016-06-01T00:20:55.670Z,20.7
2016-06-01T00:21:05.655Z,20.6
2016-06-01T00:21:15.639Z,20.7
2016-06-01T00:21:25.639Z,20.7
2016-06-01T00:21:35.624Z,20.7
2016-06-01T00:21:45.608Z,20.7
2016-06-01T00:21:55.614Z,20.7
2016-06-01T00:22:05.458Z,20.7
2016-06-01T00:22:15.598Z,20.7
2016-06-01T00:22:25.583Z,20.7
2016-06-01T00:22:35.567Z,20.7
2016-06-01T00:22:45.395Z,20.7
2016-06-01T00:22:55.557Z,20.8
2016-06-01T00:23:05.386Z,20.8
2016-06-01T00:23:15.526Z,20.8
2016-06-01T00:23:26.057Z,20.6
2016-06-01T00:23:35.495Z,20.7
2016-06-01T00:23:45.339Z,20.7
2016-06-01T00:23:55.486Z,20.7
2016-06-01T00:24:05.564Z,20.6
2016-06-01T00:24:15.471Z,20.7
2016-06-01T00:24:25.455Z,20.7
2016-06-01T00:24:35.674Z,20.7
2016-06-01T00:24:45.439Z,20.7
2016-06-01T00:24:55.427Z,20.6
2016-06-01T00:25:05.411Z,20.7
2016-06-01T00:25:15.396Z,20.7
2016-06-01T00:25:25.396Z,20.7
2016-06-01T00:25:35.380Z,20.7
2016-06-01T00:25:45.364Z,20.7
2016-06-01T00:25:55.353Z,20.7
2016-06-01T00:26:05.353Z,20.7
2016-06-01T00:26:15.337Z,20.7
2016-06-01T00:26:25.337Z,20.7
2016-06-01T00:26:35.306Z,20.7
2016-06-01T00:26:45.150Z,20.7
2016-06-01T00:26:55.294Z,20.7
2016-06-01T00:27:05.279Z,20.6
2016-06-01T00:27:15.263Z,20.6
2016-06-01T00:27:25.263Z,20.6
2016-06-01T00:27:35.247Z,20.6
2016-06-01T00:27:45.232Z,20.6
2016-06-01T00:27:55.236Z,20.7
2016-06-01T00:28:05.220Z,20.7
2016-06-01T00:28:15.204Z,20.7
2016-06-01T00:28:25.048Z,20.6
2016-06-01T00:28:35.189Z,20.7
2016-06-01T00:28:45.017Z,20.6
2016-06-01T00:28:55.177Z,20.7
2016-06-01T00:29:05.162Z,20.7
2016-06-01T00:29:15.146Z,20.7
2016-06-01T00:29:25.130Z,20.6
2016-06-01T00:29:34.974Z,20.7
2016-06-01T00:29:45.115Z,20.6
2016-06-01T00:29:54.977Z,20.7
2016-06-01T00:30:05.102Z,20.7
2016-06-01T00:30:14.930Z,20.7
2016-06-01T00:30:25.071Z,20.6
2016-06-01T00:30:35.055Z,20.7
2016-06-01T00:30:45.055Z,20.5
2016-06-01T00:30:55.043Z,20.7
2016-06-01T00:31:05.027Z,20.7
2016-06-01T00:31:15.043Z,20.7
2016-06-01T00:31:25.011Z,20.7
2016-06-01T00:31:34.996Z,20.6
2016-06-01T00:31:44.980Z,20.7
2016-06-01T00:31:54.983Z,20.7
2016-06-01T00:32:04.967Z,20.8
2016-06-01T00:32:14.967Z,20.8
2016-06-01T00:32:24.936Z,20.8
2016-06-01T00:32:34.936Z,20.7
2016-06-01T00:32:44.764Z,20.9
2016-06-01T00:32:54.908Z,20.9
2016-06-01T00:33:04.908Z,20.9
2016-06-01T00:33:14.892Z,20.9
2016-06-01T00:33:24.877Z,21
2016-06-01T00:33:34.861Z,20.9
2016-06-01T00:33:44.845Z,20.9
2016-06-01T00:33:54.848Z,20.9
2016-06-01T00:34:04.833Z,21
2016-06-01T00:34:14.817Z,21
2016-06-01T00:34:24.817Z,21
2016-06-01T00:34:34.802Z,21
2016-06-01T00:34:44.786Z,21
2016-06-01T00:34:54.773Z,21
2016-06-01T00:35:04.773Z,21.1
2016-06-01T00:35:14.758Z,20.8
2016-06-01T00:35:24.742Z,21.1
2016-06-01T00:35:34.742Z,21
2016-06-01T00:35:44.742Z,21
2016-06-01T00:35:54.729Z,21
2016-06-01T00:36:04.558Z,20.9
2016-06-01T00:36:14.542Z,21
2016-06-01T00:36:24.683Z,21
2016-06-01T00:36:34.526Z,21.1
2016-06-01T00:36:44.667Z,21
2016-06-01T00:36:54.654Z,20.9
2016-06-01T00:37:04.639Z,20.9
2016-06-01T00:37:14.639Z,21
2016-06-01T00:37:24.623Z,20.8
2016-06-01T00:37:34.607Z,20.8
2016-06-01T00:37:44.592Z,20.8
2016-06-01T00:37:54.594Z,20.9
2016-06-01T00:38:04.578Z,20.7
2016-06-01T00:38:14.563Z,20.7
2016-06-01T00:38:24.766Z,20.7
2016-06-01T00:38:34.547Z,20.7
2016-06-01T00:38:44.859Z,20.7
2016-06-01T00:38:54.597Z,20.7
2016-06-01T00:39:04.534Z,20.6
2016-06-01T00:39:15.347Z,20.7
2016-06-01T00:39:24.612Z,20.7
2016-06-01T00:39:35.081Z,20.7
2016-06-01T00:39:44.472Z,20.6
2016-06-01T00:39:54.459Z,20.8
2016-06-01T00:40:04.444Z,20.6
2016-06-01T00:40:14.444Z,20.7
2016-06-01T00:40:24.428Z,20.7
2016-06-01T00:40:34.412Z,20.7
2016-06-01T00:40:44.412Z,20.7
2016-06-01T00:40:54.415Z,20.8
2016-06-01T00:41:04.384Z,20.6
2016-06-01T00:41:14.368Z,20.6
2016-06-01T00:41:24.368Z,20.7
2016-06-01T00:41:34.353Z,20.7
2016-06-01T00:41:44.181Z,20.6
2016-06-01T00:41:54.339Z,20.7
2016-06-01T00:42:04.324Z,20.7
2016-06-01T00:42:14.308Z,20.7
2016-06-01T00:42:24.292Z,20.8
2016-06-01T00:42:34.277Z,20.7
2016-06-01T00:42:44.277Z,20.7
2016-06-01T00:42:54.264Z,20.7
2016-06-01T00:43:04.248Z,20.6
2016-06-01T00:43:14.233Z,20.6
2016-06-01T00:43:24.233Z,20.6
2016-06-01T00:43:34.217Z,20.6
2016-06-01T00:43:44.217Z,20.6
2016-06-01T00:43:54.204Z,20.6
2016-06-01T00:44:04.188Z,20.7
2016-06-01T00:44:14.172Z,20.7
2016-06-01T00:44:24.172Z,20.7
2016-06-01T00:44:34.157Z,20.7
2016-06-01T00:44:44.141Z,20.6
2016-06-01T00:44:54.144Z,20.5
2016-06-01T00:45:04.128Z,20.5
2016-06-01T00:45:14.113Z,20.6
2016-06-01T00:45:24.113Z,20.6
2016-06-01T00:45:34.097Z,20.5
2016-06-01T00:45:44.082Z,20.5
2016-06-01T00:45:54.069Z,20.5
2016-06-01T00:46:04.069Z,20.5
2016-06-01T00:46:13.897Z,20.4
2016-06-01T00:46:24.038Z,20.5
2016-06-01T00:46:34.038Z,20.6
2016-06-01T00:46:44.022Z,20.5
2016-06-01T00:46:54.008Z,20.4
2016-06-01T00:47:03.993Z,20.4
2016-06-01T00:47:13.977Z,20.3
2016-06-01T00:47:23.977Z,20.4
2016-06-01T00:47:33.962Z,20.5
2016-06-01T00:47:43.946Z,20.3
2016-06-01T00:47:53.949Z,20.4
2016-06-01T00:48:03.933Z,20.4
2016-06-01T00:48:13.933Z,20.3
2016-06-01T00:48:23.761Z,20.3
2016-06-01T00:48:33.902Z,20.4
2016-06-01T00:48:43.730Z,20.3
2016-06-01T00:48:53.874Z,20.4
2016-06-01T00:49:03.858Z,20.4
2016-06-01T00:49:13.858Z,20.4
2016-06-01T00:49:23.843Z,20.3
2016-06-01T00:49:33.843Z,20.3
2016-06-01T00:49:43.827Z,20.3
2016-06-01T00:49:53.814Z,20.4
2016-06-01T00:50:03.799Z,20.3
2016-06-01T00:50:13.799Z,20.3
2016-06-01T00:50:23.783Z,20.4
2016-06-01T00:50:33.767Z,20.4
2016-06-01T00:50:43.752Z,20.5
2016-06-01T00:50:53.598Z,20.4
2016-06-01T00:51:03.738Z,20.4
2016-06-01T00:51:13.738Z,20.5
2016-06-01T00:51:23.566Z,20.4
2016-06-01T00:51:33.707Z,20.4
2016-06-01T00:51:43.691Z,20.5
2016-06-01T00:51:53.694Z,20.4
2016-06-01T00:52:03.679Z,20.4
2016-06-01T00:52:13.663Z,20.4
2016-06-01T00:52:23.647Z,20.4
2016-06-01T00:52:33.647Z,20.5
2016-06-01T00:52:43.632Z,20.3
2016-06-01T00:52:53.619Z,20.4
2016-06-01T00:53:03.619Z,20.3
2016-06-01T00:53:13.447Z,20.4
2016-06-01T00:53:23.588Z,20.4
2016-06-01T00:53:33.572Z,20.3
2016-06-01T00:53:44.213Z,20.3
2016-06-01T00:53:53.590Z,20.3
2016-06-01T00:54:03.559Z,20.3
2016-06-01T00:54:13.543Z,20.3
2016-06-01T00:54:24.418Z,20.3
2016-06-01T00:54:33.934Z,20.4
2016-06-01T00:54:43.496Z,20.3
2016-06-01T00:54:53.484Z,20.3
2016-06-01T00:55:03.327Z,20.4
2016-06-01T00:55:13.468Z,20.3
2016-06-01T00:55:23.452Z,20.3
2016-06-01T00:55:33.437Z,20.3
2016-06-01T00:55:43.280Z,20.3
2016-06-01T00:55:53.440Z,20.2
2016-06-01T00:56:03.424Z,20.3
2016-06-01T00:56:13.408Z,20.4
2016-06-01T00:56:23.393Z,20.3
2016-06-01T00:56:33.377Z,20.2
2016-06-01T00:56:43.362Z,20.3
2016-06-01T00:56:53.364Z,20.3
2016-06-01T00:57:03.348Z,20.4
2016-06-01T00:57:13.332Z,20.4
2016-06-01T00:57:23.332Z,20.3
2016-06-01T00:57:33.160Z,20.3
2016-06-01T00:57:43.301Z,20.3
2016-06-01T00:57:53.288Z,20.3
2016-06-01T00:58:03.288Z,20.3
2016-06-01T00:58:13.273Z,20.3
2016-06-01T00:58:23.257Z,20.4
2016-06-01T00:58:33.257Z,20.4
2016-06-01T00:58:43.242Z,20.3
2016-06-01T00:58:53.245Z,20.4
2016-06-01T00:59:03.229Z,20.3
2016-06-01T00:59:13.213Z,20.3
2016-06-01T00:59:23.213Z,20.3
2016-06-01T00:59:33.198Z,20.2
2016-06-01T00:59:43.182Z,20.3
2016-06-01T00:59:53.168Z,20.3
2016-06-01T01:00:03.153Z,20.3
2016-06-01T01:00:13.137Z,20.3
2016-06-01T01:00:23.122Z,20.2
2016-06-01T01:00:33.122Z,20.3
2016-06-01T01:00:43.106Z,20.4
2016-06-01T01:00:53.093Z,20.3
2016-06-01T01:01:03.093Z,20.2
2016-06-01T01:01:13.078Z,20.2
2016-06-01T01:01:23.062Z,20.3
2016-06-01T01:01:33.046Z,20.3
2016-06-01T01:01:43.046Z,20.4
2016-06-01T01:01:53.049Z,20.4
2016-06-01T01:02:03.018Z,20.3
2016-06-01T01:02:13.018Z,20.3
2016-06-01T01:02:23.003Z,20.4
2016-06-01T01:02:33.003Z,20.4
2016-06-01T01:02:42.831Z,20.4
2016-06-01T01:02:52.974Z,20.5
2016-06-01T01:03:02.959Z,20.4
2016-06-01T01:03:12.943Z,20.4
2016-06-01T01:03:22.959Z,20.4
2016-06-01T01:03:32.927Z,20.5
2016-06-01T01:03:42.756Z,20.5
2016-06-01T01:03:52.898Z,20.5
2016-06-01T01:04:02.742Z,20.5
2016-06-01T01:04:12.742Z,20.4
2016-06-01T01:04:22.867Z,20.6
2016-06-01T01:04:32.867Z,20.5
2016-06-01T01:04:42.851Z,20.5
2016-06-01T01:04:52.839Z,20.6
2016-06-01T01:05:02.823Z,20.6
2016-06-01T01:05:12.807Z,20.5
2016-06-01T01:05:22.807Z,20.5
2016-06-01T01:05:32.792Z,20.7
2016-06-01T01:05:42.776Z,20.6
2016-06-01T01:05:52.778Z,20.6
2016-06-01T01:06:02.763Z,20.6
2016-06-01T01:06:12.747Z,20.7
2016-06-01T01:06:22.747Z,20.7
2016-06-01T01:06:32.731Z,20.7
2016-06-01T01:06:42.575Z,20.6
2016-06-01T01:06:52.719Z,20.6
2016-06-01T01:07:02.547Z,20.6
2016-06-01T01:07:12.531Z,20.6
2016-06-01T01:07:22.687Z,20.6
2016-06-01T01:07:32.656Z,20.6
2016-06-01T01:07:42.656Z,20.6
2016-06-01T01:07:52.487Z,20.6
2016-06-01T01:08:02.644Z,20.5
2016-06-01T01:08:12.472Z,20.7
2016-06-01T01:08:22.862Z,20.5
2016-06-01T01:08:33.034Z,20.6
2016-06-01T01:08:42.440Z,20.6
2016-06-01T01:08:52.428Z,20.6
2016-06-01T01:09:02.584Z,20.6
2016-06-01T01:09:13.147Z,20.7
2016-06-01T01:09:22.553Z,20.7
2016-06-01T01:09:33.256Z,20.7
2016-06-01T01:09:42.522Z,20.7
2016-06-01T01:09:52.524Z,20.6
2016-06-01T01:10:02.492Z,20.7
2016-06-01T01:10:12.492Z,20.7
2016-06-01T01:10:22.336Z,20.7
2016-06-01T01:10:32.477Z,20.7
2016-06-01T01:10:42.461Z,20.8
2016-06-01T01:10:52.448Z,20.7
2016-06-01T01:11:02.433Z,20.7
2016-06-01T01:11:12.433Z,20.7
2016-06-01T01:11:22.261Z,20.7
2016-06-01T01:11:32.417Z,20.7
2016-06-01T01:11:42.402Z,20.8
2016-06-01T01:11:52.389Z,20.7
2016-06-01T01:12:02.217Z,20.6
2016-06-01T01:12:12.358Z,20.6
2016-06-01T01:12:22.358Z,20.7
2016-06-01T01:12:32.342Z,20.7
2016-06-01T01:12:42.326Z,20.8
2016-06-01T01:12:52.328Z,20.7
2016-06-01T01:13:02.313Z,20.7
2016-06-01T01:13:12.297Z,20.7
2016-06-01T01:13:22.297Z,20.8
2016-06-01T01:13:32.282Z,20.6
2016-06-01T01:13:42.266Z,20.8
2016-06-01T01:13:52.253Z,20.8
2016-06-01T01:14:02.238Z,20.9
2016-06-01T01:14:12.238Z,20.8
2016-06-01T01:14:22.222Z,20.7
2016-06-01T01:14:32.066Z,20.7
2016-06-01T01:14:42.206Z,20.7
2016-06-01T01:14:52.209Z,20.8
2016-06-01T01:15:02.194Z,20.9
2016-06-01T01:15:12.178Z,20.8
2016-06-01T01:15:22.163Z,20.7
2016-06-01T01:15:32.147Z,20.8
2016-06-01T01:15:42.147Z,20.7
2016-06-01T01:15:52.134Z,20.7
2016-06-01T01:16:02.119Z,20.7
2016-06-01T01:16:11.962Z,20.7
2016-06-01T01:16:22.087Z,20.8
2016-06-01T01:16:32.087Z,20.7
2016-06-01T01:16:42.072Z,20.7
2016-06-01T01:16:52.058Z,20.8
2016-06-01T01:17:02.058Z,20.7
2016-06-01T01:17:11.886Z,20.7
2016-06-01T01:17:22.027Z,20.7
2016-06-01T01:17:32.027Z,20.8
2016-06-01T01:17:41.996Z,20.7
2016-06-01T01:17:51.999Z,20.8
2016-06-01T01:18:01.983Z,20.7
2016-06-01T01:18:11.967Z,20.7
2016-06-01T01:18:21.967Z,20.8
2016-06-01T01:18:31.952Z,20.9
2016-06-01T01:18:41.936Z,20.8
2016-06-01T01:18:51.923Z,20.7
2016-06-01T01:19:01.923Z,20.7
2016-06-01T01:19:11.923Z,20.8
2016-06-01T01:19:21.891Z,20.7
2016-06-01T01:19:31.751Z,20.7
2016-06-01T01:19:41.876Z,20.8
2016-06-01T01:19:51.863Z,20.7
2016-06-01T01:20:01.863Z,20.8
2016-06-01T01:20:11.847Z,20.7
2016-06-01T01:20:21.832Z,20.8
2016-06-01T01:20:31.816Z,20.8
2016-06-01T01:20:41.816Z,20.8
2016-06-01T01:20:51.819Z,20.7
2016-06-01T01:21:01.804Z,20.9
2016-06-01T01:21:11.772Z,20.8
2016-06-01T01:21:21.772Z,20.8
2016-06-01T01:21:31.772Z,20.8
2016-06-01T01:21:41.741Z,20.7
2016-06-01T01:21:51.744Z,20.8
2016-06-01T01:22:01.728Z,20.7
2016-06-01T01:22:11.557Z,20.8
2016-06-01T01:22:21.713Z,20.7
2016-06-01T01:22:31.697Z,20.7
2016-06-01T01:22:41.682Z,20.6
2016-06-01T01:22:51.684Z,20.6
2016-06-01T01:23:01.668Z,20.7
2016-06-01T01:23:11.496Z,20.8
2016-06-01T01:23:21.480Z,20.8
2016-06-01T01:23:31.637Z,20.7
2016-06-01T01:23:41.824Z,20.7
2016-06-01T01:23:51.608Z,20.7
2016-06-01T01:24:01.827Z,20.6
2016-06-01T01:24:11.874Z,20.7
2016-06-01T01:24:21.421Z,20.7
2016-06-01T01:24:31.437Z,20.6
2016-06-01T01:24:41.546Z,20.7
2016-06-01T01:24:51.549Z,20.7
2016-06-01T01:25:01.533Z,20.7
2016-06-01T01:25:11.518Z,20.6
2016-06-01T01:25:21.518Z,20.6
2016-06-01T01:25:31.502Z,20.6
2016-06-01T01:25:41.486Z,20.7
2016-06-01T01:25:51.332Z,20.7
2016-06-01T01:26:01.473Z,20.7
2016-06-01T01:26:11.317Z,20.7
2016-06-01T01:26:21.442Z,20.6
2016-06-01T01:26:31.285Z,20.7
2016-06-01T01:26:41.270Z,20.7
2016-06-01T01:26:51.413Z,20.7
2016-06-01T01:27:01.398Z,20.6
2016-06-01T01:27:11.398Z,20.7
2016-06-01T01:27:21.382Z,20.6
2016-06-01T01:27:31.366Z,20.7
2016-06-01T01:27:41.210Z,20.7
2016-06-01T01:27:51.354Z,20.7
2016-06-01T01:28:01.338Z,20.7
2016-06-01T01:28:11.323Z,20.7
2016-06-01T01:28:21.323Z,20.9
2016-06-01T01:28:31.307Z,20.8
2016-06-01T01:28:41.151Z,20.7
2016-06-01T01:28:51.138Z,20.6
2016-06-01T01:29:01.279Z,20.8
2016-06-01T01:29:11.263Z,20.7
2016-06-01T01:29:21.247Z,20.7
2016-06-01T01:29:31.091Z,20.8
2016-06-01T01:29:41.232Z,20.7
2016-06-01T01:29:51.062Z,20.8
2016-06-01T01:30:01.218Z,20.8
2016-06-01T01:30:11.218Z,20.8
2016-06-01T01:30:21.187Z,20.8
2016-06-01T01:30:31.171Z,20.8
2016-06-01T01:30:41.171Z,20.6
2016-06-01T01:30:51.158Z,20.8
2016-06-01T01:31:01.142Z,20.8
2016-06-01T01:31:10.986Z,20.7
2016-06-01T01:31:21.126Z,20.8
2016-06-01T01:31:31.111Z,20.7
2016-06-01T01:31:41.111Z,20.7
2016-06-01T01:31:51.098Z,20.8
2016-06-01T01:32:01.083Z,20.7
2016-06-01T01:32:11.067Z,20.7
2016-06-01T01:32:21.051Z,20.8
2016-06-01T01:32:31.051Z,20.7
2016-06-01T01:32:41.036Z,20.8
2016-06-01T01:32:51.023Z,20.8
2016-06-01T01:33:01.023Z,20.8
2016-06-01T01:33:10.851Z,20.8
2016-06-01T01:33:21.007Z,20.7
2016-06-01T01:33:30.992Z,20.7
2016-06-01T01:33:40.976Z,20.7
2016-06-01T01:33:50.807Z,20.7
2016-06-01T01:34:00.948Z,20.8
2016-06-01T01:34:10.948Z,20.7
2016-06-01T01:34:20.932Z,20.7
2016-06-01T01:34:30.917Z,20.7
2016-06-01T01:34:40.917Z,20.8
2016-06-01T01:34:50.903Z,20.7
2016-06-01T01:35:00.887Z,20.7
2016-06-01T01:35:10.872Z,20.7
2016-06-01T01:35:20.856Z,20.7
2016-06-01T01:35:30.700Z,20.8
2016-06-01T01:35:40.841Z,20.6
2016-06-01T01:35:50.844Z,20.7
2016-06-01T01:36:00.828Z,20.7
2016-06-01T01:36:10.812Z,20.7
2016-06-01T01:36:20.812Z,20.7
2016-06-01T01:36:30.781Z,20.6
2016-06-01T01:36:40.781Z,20.8
2016-06-01T01:36:50.784Z,20.8
2016-06-01T01:37:00.768Z,20.6
2016-06-01T01:37:10.597Z,20.7
2016-06-01T01:37:20.753Z,20.7
2016-06-01T01:37:30.722Z,20.7
2016-06-01T01:37:40.722Z,20.8
2016-06-01T01:37:50.709Z,20.6
2016-06-01T01:38:00.693Z,20.8
2016-06-01T01:38:10.693Z,20.7
2016-06-01T01:38:21.115Z,20.8
2016-06-01T01:38:31.271Z,20.8
2016-06-01T01:38:40.678Z,20.7
2016-06-01T01:38:51.070Z,20.6
2016-06-01T01:39:00.805Z,20.7
2016-06-01T01:39:10.805Z,20.8
2016-06-01T01:39:20.633Z,20.8
2016-06-01T01:39:31.695Z,20.7
2016-06-01T01:39:40.586Z,20.8
2016-06-01T01:39:50.573Z,20.8
2016-06-01T01:40:00.573Z,20.7
2016-06-01T01:40:10.558Z,20.8
2016-06-01T01:40:20.558Z,20.8
2016-06-01T01:40:30.542Z,20.8
2016-06-01T01:40:40.370Z,20.8
2016-06-01T01:40:50.513Z,20.9
2016-06-01T01:41:00.513Z,20.9
2016-06-01T01:41:10.497Z,20.8
2016-06-01T01:41:20.482Z,20.7
2016-06-01T01:41:30.466Z,21
2016-06-01T01:41:40.450Z,20.7
2016-06-01T01:41:50.453Z,20.7
2016-06-01T01:42:00.438Z,20.9
2016-06-01T01:42:10.438Z,20.8
2016-06-01T01:42:20.422Z,20.9
2016-06-01T01:42:30.250Z,20.7
2016-06-01T01:42:40.391Z,20.9
2016-06-01T01:42:50.394Z,20.8
2016-06-01T01:43:00.378Z,20.7
2016-06-01T01:43:10.206Z,20.8
2016-06-01T01:43:20.206Z,20.9
2016-06-01T01:43:30.347Z,20.8
2016-06-01T01:43:40.175Z,20.9
2016-06-01T01:43:50.319Z,20.9
2016-06-01T01:44:00.334Z,21
2016-06-01T01:44:10.147Z,21
2016-06-01T01:44:20.303Z,20.8
2016-06-01T01:44:30.287Z,20.9
2016-06-01T01:44:40.272Z,20.8
2016-06-01T01:44:50.258Z,20.7
2016-06-01T01:45:00.258Z,20.8
2016-06-01T01:45:10.243Z,20.7
2016-06-01T01:45:20.227Z,20.9
2016-06-01T01:45:30.211Z,20.8
2016-06-01T01:45:40.211Z,20.8
2016-06-01T01:45:50.199Z,20.8
2016-06-01T01:46:00.183Z,20.8
2016-06-01T01:46:10.167Z,20.8
2016-06-01T01:46:20.167Z,20.7
2016-06-01T01:46:30.152Z,20.8
2016-06-01T01:46:40.136Z,20.8
2016-06-01T01:46:49.983Z,20.7
2016-06-01T01:47:00.124Z,20.7
2016-06-01T01:47:10.108Z,20.7
2016-06-01T01:47:19.952Z,20.7
2016-06-01T01:47:30.092Z,20.7
2016-06-01T01:47:40.092Z,20.7
2016-06-01T01:47:50.064Z,20.7
2016-06-01T01:48:00.048Z,20.8
2016-06-01T01:48:10.048Z,20.8
2016-06-01T01:48:20.033Z,20.7
2016-06-01T01:48:30.017Z,20.8
2016-06-01T01:48:39.861Z,20.7
2016-06-01T01:48:50.004Z,20.7
2016-06-01T01:48:59.988Z,20.7
2016-06-01T01:49:09.832Z,20.7
2016-06-01T01:49:19.988Z,20.7
2016-06-01T01:49:29.800Z,20.8
2016-06-01T01:49:39.785Z,20.7
2016-06-01T01:49:49.928Z,20.7
2016-06-01T01:49:59.928Z,20.7
2016-06-01T01:50:09.913Z,20.7
2016-06-01T01:50:19.757Z,20.8
2016-06-01T01:50:29.897Z,20.7
2016-06-01T01:50:39.882Z,20.6
2016-06-01T01:50:49.869Z,20.8
2016-06-01T01:50:59.853Z,20.7
2016-06-01T01:51:09.853Z,20.7
2016-06-01T01:51:19.838Z,20.8
2016-06-01T01:51:29.822Z,20.7
2016-06-01T01:51:39.822Z,20.8
2016-06-01T01:51:49.808Z,20.8
2016-06-01T01:51:59.793Z,20.7
2016-06-01T01:52:09.637Z,20.8
2016-06-01T01:52:19.777Z,20.7
2016-06-01T01:52:29.762Z,20.8
2016-06-01T01:52:39.762Z,20.9
2016-06-01T01:52:49.749Z,20.7
2016-06-01T01:52:59.733Z,20.8
2016-06-01T01:53:09.718Z,20.7
2016-06-01T01:53:19.718Z,20.8
2016-06-01T01:53:29.561Z,20.8
2016-06-01T01:53:39.686Z,20.8
2016-06-01T01:53:49.829Z,20.8
2016-06-01T01:53:59.517Z,20.6
2016-06-01T01:54:09.501Z,20.7
2016-06-01T01:54:19.751Z,20.7
2016-06-01T01:54:29.673Z,20.6
2016-06-01T01:54:39.626Z,20.7
2016-06-01T01:54:49.613Z,20.7
2016-06-01T01:54:59.457Z,20.7
2016-06-01T01:55:09.598Z,20.6
2016-06-01T01:55:19.582Z,20.6
2016-06-01T01:55:29.426Z,20.6
2016-06-01T01:55:39.566Z,20.7
2016-06-01T01:55:49.554Z,20.7
2016-06-01T01:55:59.538Z,20.7
2016-06-01T01:56:09.523Z,20.7
2016-06-01T01:56:19.523Z,20.6
2016-06-01T01:56:29.507Z,20.5
2016-06-01T01:56:39.491Z,20.6
2016-06-01T01:56:49.479Z,20.6
2016-06-01T01:56:59.479Z,20.6
2016-06-01T01:57:09.463Z,20.6
2016-06-01T01:57:19.447Z,20.5
2016-06-01T01:57:29.447Z,20.5
2016-06-01T01:57:39.432Z,20.5
2016-06-01T01:57:49.418Z,20.6
2016-06-01T01:57:59.418Z,20.6
2016-06-01T01:58:09.403Z,20.6
2016-06-01T01:58:19.387Z,20.6
2016-06-01T01:58:29.371Z,20.6
2016-06-01T01:58:39.371Z,20.6
2016-06-01T01:58:49.356Z,20.4
2016-06-01T01:58:59.343Z,20.6
2016-06-01T01:59:09.343Z,20.5
2016-06-01T01:59:19.171Z,20.5
2016-06-01T01:59:29.156Z,20.5
2016-06-01T01:59:39.156Z,20.6
2016-06-01T01:59:49.296Z,20.5
2016-06-01T01:59:59.127Z,20.4
2016-06-01T02:00:09.268Z,20.5
2016-06-01T02:00:19.252Z,20.4
2016-06-01T02:00:29.252Z,20.4
2016-06-01T02:00:39.237Z,20.5
2016-06-01T02:00:49.237Z,20.4
2016-06-01T02:00:59.239Z,20.5
2016-06-01T02:01:09.223Z,20.5
2016-06-01T02:01:19.192Z,20.6
2016-06-01T02:01:29.176Z,20.4
2016-06-01T02:01:39.176Z,20.4
2016-06-01T02:01:49.161Z,20.4
2016-06-01T02:01:58.992Z,20.3
2016-06-01T02:02:09.132Z,20.5
2016-06-01T02:02:19.132Z,20.4
2016-06-01T02:02:28.960Z,20.4
2016-06-01T02:02:39.101Z,20.4
2016-06-01T02:02:49.117Z,20.5
2016-06-01T02:02:59.087Z,20.4
2016-06-01T02:03:09.072Z,20.3
2016-06-01T02:03:19.072Z,20.3
2016-06-01T02:03:29.041Z,20.3
2016-06-01T02:03:39.041Z,20.3
2016-06-01T02:03:49.025Z,20.3
2016-06-01T02:03:58.873Z,20.4
2016-06-01T02:04:09.013Z,20.3
2016-06-01T02:04:18.998Z,20.4
2016-06-01T02:04:28.998Z,20.3
2016-06-01T02:04:38.982Z,20.3
2016-06-01T02:04:48.966Z,20.3
2016-06-01T02:04:58.968Z,20.5
2016-06-01T02:05:08.953Z,20.3
2016-06-01T02:05:18.937Z,20.4
2016-06-01T02:05:28.922Z,20.4
2016-06-01T02:05:38.922Z,20.3
2016-06-01T02:05:48.906Z,20.2
2016-06-01T02:05:58.737Z,20.4
2016-06-01T02:06:08.737Z,20.4
2016-06-01T02:06:18.878Z,20.4
2016-06-01T02:06:28.862Z,20.3
2016-06-01T02:06:38.690Z,20.2
2016-06-01T02:06:48.846Z,20.3
2016-06-01T02:06:58.834Z,20.4
2016-06-01T02:07:08.818Z,20.3
2016-06-01T02:07:18.662Z,20.2
2016-06-01T02:07:28.787Z,20.4
2016-06-01T02:07:38.787Z,20.3
2016-06-01T02:07:48.787Z,20.5
2016-06-01T02:07:58.617Z,20.6
2016-06-01T02:08:08.758Z,20.5
2016-06-01T02:08:18.742Z,20.4
2016-06-01T02:08:29.117Z,20.4
2016-06-01T02:08:38.570Z,20.5
2016-06-01T02:08:48.570Z,20.5
2016-06-01T02:08:58.541Z,20.5
2016-06-01T02:09:09.603Z,20.6
2016-06-01T02:09:18.666Z,20.4
2016-06-01T02:09:28.822Z,20.3
2016-06-01T02:09:38.650Z,20.4
2016-06-01T02:09:48.650Z,20.4
2016-06-01T02:09:58.639Z,20.5
2016-06-01T02:10:08.623Z,20.6
2016-06-01T02:10:18.607Z,20.5
2016-06-01T02:10:28.451Z,20.4
2016-06-01T02:10:38.436Z,20.5
2016-06-01T02:10:48.576Z,20.5
2016-06-01T02:10:58.578Z,20.5
2016-06-01T02:11:08.563Z,20.6
2016-06-01T02:11:18.547Z,20.6
2016-06-01T02:11:28.531Z,20.7
2016-06-01T02:11:38.531Z,20.6
2016-06-01T02:11:48.516Z,20.7
2016-06-01T02:11:58.519Z,20.7
2016-06-01T02:12:08.503Z,20.7
2016-06-01T02:12:18.487Z,20.6
2016-06-01T02:12:28.472Z,20.5
2016-06-01T02:12:38.316Z,20.6
2016-06-01T02:12:48.456Z,20.6
2016-06-01T02:12:58.444Z,20.5
2016-06-01T02:13:08.428Z,20.5
2016-06-01T02:13:18.412Z,20.6
2016-06-01T02:13:28.412Z,20.5